createdAt,value
2022-12-31T00:02:32.257Z,14.65
2022-12-31T00:06:22.403Z,14.27
2022-12-31T00:10:04.918Z,11.23
2022-12-31T00:13:47.332Z,13.82
2022-12-31T00:17:29.787Z,21.00
2022-12-31T00:21:12.024Z,11.00
2022-12-31T00:24:53.826Z,11.00
2022-12-31T00:28:36.883Z,13.93
2022-12-31T00:32:18.635Z,8.88
2022-12-31T00:36:09.243Z,14.93
2022-12-31T00:39:51.004Z,13.13
2022-12-31T00:43:33.589Z,9.05
2022-12-31T00:47:15.396Z,15.13
2022-12-31T00:50:57.648Z,11.82
2022-12-31T00:54:39.530Z,13.35
2022-12-31T00:58:21.264Z,14.95
2022-12-31T01:02:03.191Z,13.63
2022-12-31T01:05:45.049Z,8.18
2022-12-31T01:09:27.333Z,8.23
2022-12-31T01:13:09.322Z,7.65
2022-12-31T01:16:54.020Z,13.05
2022-12-31T01:20:41.413Z,7.30
2022-12-31T01:24:23.846Z,15.85
2022-12-31T01:28:06.544Z,10.77
2022-12-31T01:31:48.288Z,8.70
2022-12-31T01:35:30.026Z,12.15
2022-12-31T01:39:12.860Z,6.35
2022-12-31T01:42:56.267Z,6.88
2022-12-31T01:46:52.820Z,2.67
2022-12-31T01:50:38.955Z,8.40
2022-12-31T01:54:22.954Z,3.42
2022-12-31T01:58:21.100Z,6.45
2022-12-31T02:02:04.140Z,2.67
2022-12-31T02:06:13.583Z,3.15
2022-12-31T02:09:55.356Z,1.38
2022-12-31T02:13:37.113Z,1.85
2022-12-31T02:17:45.884Z,1.90
2022-12-31T02:21:39.597Z,1.25
2022-12-31T02:25:56.365Z,2.78
2022-12-31T02:29:56.633Z,2.90
2022-12-31T02:33:48.412Z,4.15
2022-12-31T02:37:33.092Z,1.13
2022-12-31T02:41:36.842Z,1.83
2022-12-31T02:45:26.936Z,1.67
2022-12-31T02:49:53.623Z,1.83
